Time;durP1;ratioP1;P1;durP2;ratioP2;P2;SDS_P1;SDS_P2;PMS_P1;PMS_P2;Temp;Humidity;BMP_temperature;BMP_pressure;BME280_temperature;BME280_humidity;BME280_pressure;Samples;Min_cycle;Max_cycle;Signal;HPM_P1;HPM_P2
2022/09/16 00:00:32;;;;;;;12.23;4.95;;;;;;;18.94;76.52;96342.69;5046869;28;20053;-62
2022/09/16 00:02:58;;;;;;;18.88;5.03;;;;;;;19.05;76.93;96343.97;5045311;28;20486;-62
2022/09/16 00:05:25;;;;;;;9.32;5.00;;;;;;;19.14;76.20;96354.56;5047087;28;20057;-63
2022/09/16 00:07:53;;;;;;;11.68;4.25;;;;;;;18.93;75.94;96316.66;5046992;28;20053;-63
2022/09/16 00:10:20;;;;;;;15.90;5.45;;;;;;;18.74;76.03;96295.13;5046604;28;20084;-62
2022/09/16 00:12:48;;;;;;;14.05;5.00;;;;;;;18.90;77.92;96348.41;5045418;28;20053;-63
2022/09/16 00:15:15;;;;;;;11.85;4.60;;;;;;;18.91;77.99;96344.34;5045852;28;20636;-62
2022/09/16 00:17:41;;;;;;;13.45;4.65;;;;;;;18.79;77.79;96356.31;5046601;28;20092;-63
2022/09/16 00:20:09;;;;;;;11.55;4.35;;;;;;;18.88;77.37;96350.84;5045263;28;20045;-62
2022/09/16 00:22:35;;;;;;;15.02;4.72;;;;;;;18.94;77.09;96334.25;5045000;28;20594;-62
2022/09/16 00:25:02;;;;;;;13.77;4.93;;;;;;;18.80;76.99;96307.38;5046477;28;20049;-63
2022/09/16 00:27:29;;;;;;;7.78;4.38;;;;;;;18.79;76.92;96308.63;5045106;28;20369;-62
2022/09/16 00:29:55;;;;;;;12.57;4.95;;;;;;;18.96;76.68;96338.22;5045162;28;20603;-62
2022/09/16 00:32:23;;;;;;;10.50;4.68;;;;;;;18.94;76.68;96354.69;5045023;28;20056;-62
2022/09/16 00:34:51;;;;;;;9.85;4.78;;;;;;;18.65;78.89;96334.22;5044712;28;20538;-64
2022/09/16 00:37:17;;;;;;;11.30;5.10;;;;;;;18.74;79.37;96376.50;5044962;28;20132;-62
2022/09/16 00:39:48;;;;;;;15.73;5.63;;;;;;;18.68;80.14;96360.63;5045042;28;20049;-62
2022/09/16 00:42:15;;;;;;;9.02;5.10;;;;;;;18.23;81.34;96317.63;5046312;28;20119;-62
2022/09/16 00:44:53;;;;;;;10.07;5.47;;;;;;;18.45;81.52;96341.94;5044549;28;20083;-62
2022/09/16 00:47:25;;;;;;;12.73;4.82;;;;;;;18.48;81.81;96357.91;5044286;28;20053;-63
2022/09/16 00:49:55;;;;;;;9.98;5.25;;;;;;;18.48;81.23;96345.91;5043870;28;20060;-62
2022/09/16 00:52:22;;;;;;;10.95;4.85;;;;;;;18.61;80.82;96349.56;5044641;28;20057;-62
2022/09/16 00:54:49;;;;;;;10.85;5.32;;;;;;;18.51;79.67;96323.34;5044737;28;20135;-63
2022/09/16 00:57:16;;;;;;;8.25;5.07;;;;;;;16.18;79.16;95991.28;5044476;28;20123;-62
2022/09/16 00:59:46;;;;;;;13.10;5.05;;;;;;;18.21;79.34;96304.06;5045601;28;20053;-63
2022/09/16 01:02:16;;;;;;;11.55;5.43;;;;;;;18.45;79.51;96344.75;5044621;28;20125;-62
2022/09/16 01:04:52;;;;;;;14.30;5.38;;;;;;;17.77;80.83;96290.72;5046250;28;20049;-62
2022/09/16 01:07:42;;;;;;;11.57;4.93;;;;;;;18.09;81.81;96352.41;5045837;28;20057;-62
2022/09/16 01:10:11;;;;;;;18.15;5.60;;;;;;;17.56;83.38;96324.81;5045381;28;20080;-61
2022/09/16 01:12:40;;;;;;;15.52;5.43;;;;;;;17.65;83.54;96355.81;5045756;28;20559;-63
2022/09/16 01:15:08;;;;;;;11.95;4.95;;;;;;;17.52;86.52;96382.91;5045628;28;20072;-62
2022/09/16 01:18:00;;;;;;;7.35;5.20;;;;;;;17.59;86.64;96377.16;5045705;28;21952;-63
2022/09/16 01:20:42;;;;;;;14.13;5.10;;;;;;;17.71;86.05;96376.50;5043658;28;20095;-62
2022/09/16 01:23:40;;;;;;;9.77;5.03;;;;;;;17.79;85.67;96361.13;5044203;28;20103;-63
2022/09/16 01:26:54;;;;;;;10.30;5.30;;;;;;;17.90;85.27;96364.47;5045822;28;20076;-61
2022/09/16 01:29:39;;;;;;;14.13;5.82;;;;;;;17.98;84.35;96357.47;5038985;28;20052;-63
2022/09/16 01:32:41;;;;;;;13.23;5.75;;;;;;;18.03;83.38;96365.38;5045561;28;20080;-62
2022/09/16 01:35:19;;;;;;;17.80;5.95;;;;;;;18.10;82.49;96359.59;5031217;28;20048;-62
2022/09/16 01:38:10;;;;;;;10.20;5.38;;;;;;;18.13;82.13;96369.94;5045616;28;20098;-63
2022/09/16 01:41:00;;;;;;;17.25;6.07;;;;;;;18.21;81.40;96371.34;5044115;28;20088;-62
2022/09/16 01:43:53;;;;;;;14.45;5.88;;;;;;;18.13;81.74;96374.75;5045510;28;20148;-64
2022/09/16 01:46:41;;;;;;;11.93;5.88;;;;;;;18.15;81.85;96375.91;5044858;28;20148;-63
2022/09/16 01:49:11;;;;;;;9.85;5.35;;;;;;;18.13;82.08;96365.13;5044966;28;20652;-61
2022/09/16 01:51:44;;;;;;;11.70;5.22;;;;;;;18.28;81.15;96365.59;5045009;28;20658;-61
2022/09/16 01:54:14;;;;;;;;;;;;;;;18.32;80.67;96360.66;5045204;28;20088;-64
2022/09/16 01:56:47;;;;;;;11.13;5.65;;;;;;;18.21;80.99;96360.13;5044556;28;19979;-63
2022/09/16 01:59:22;;;;;;;12.27;5.30;;;;;;;18.33;80.26;96367.88;5044702;28;20057;-63
2022/09/16 02:02:10;;;;;;;13.77;5.57;;;;;;;18.34;80.47;96379.84;5044690;28;20111;-62
2022/09/16 02:04:44;;;;;;;13.43;5.22;;;;;;;16.95;81.32;96172.56;5044698;28;20539;-63
2022/09/16 02:07:14;;;;;;;21.45;6.07;;;;;;;17.90;83.87;96367.28;5044938;28;20088;-63
2022/09/16 02:09:48;;;;;;;15.93;5.32;;;;;;;16.43;83.31;96138.88;5043042;28;20478;-62
2022/09/16 02:12:22;;;;;;;10.43;5.50;;;;;;;17.88;84.30;96364.91;5045047;28;20052;-63
2022/09/16 02:14:54;;;;;;;10.80;5.15;;;;;;;17.31;84.14;96274.13;5043247;28;20069;-63
2022/09/16 02:17:24;;;;;;;18.10;5.47;;;;;;;17.84;85.08;96366.22;5044811;28;20056;-63
2022/09/16 02:19:56;;;;;;;10.20;5.15;;;;;;;17.74;85.24;96358.81;5042885;28;20186;-62
2022/09/16 02:22:42;;;;;;;12.55;5.47;;;;;;;17.69;85.58;96379.72;5044717;28;20061;-63
2022/09/16 02:25:12;;;;;;;10.77;5.45;;;;;;;17.75;86.22;96371.63;5044435;28;20084;-62
2022/09/16 02:27:41;;;;;;;10.77;5.20;;;;;;;17.78;85.86;96370.75;5045080;28;20080;-63
2022/09/16 02:30:14;;;;;;;9.38;5.40;;;;;;;17.85;85.54;96376.19;5042764;28;20103;-62
2022/09/16 02:32:45;;;;;;;16.50;5.45;;;;;;;17.86;85.29;96367.34;5044288;28;20496;-62
2022/09/16 02:35:15;;;;;;;15.65;5.53;;;;;;;17.81;85.08;96358.69;5044264;28;20142;-62
2022/09/16 02:38:03;;;;;;;9.10;5.68;;;;;;;17.46;84.35;96292.22;5042399;28;20107;-62
2022/09/16 02:40:50;;;;;;;13.43;5.53;;;;;;;17.94;83.66;96334.38;5043847;28;20140;-64
2022/09/16 02:43:17;;;;;;;13.65;5.63;;;;;;;18.28;83.34;96379.59;5043152;28;20127;-63
2022/09/16 02:46:09;;;;;;;12.55;5.25;;;;;;;18.37;82.68;96385.38;5043950;28;20072;-62
2022/09/16 02:48:35;;;;;;;13.88;5.28;;;;;;;18.33;82.99;96378.28;5044310;28;20067;-63
2022/09/16 02:51:14;;;;;;;13.65;5.25;;;;;;;18.32;82.96;96371.88;5043917;28;20122;-63
2022/09/16 02:53:53;;;;;;;13.32;5.07;;;;;;;18.33;81.80;96381.09;5042573;28;20138;-65
2022/09/16 02:56:46;;;;;;;13.63;4.80;;;;;;;18.50;80.35;96366.66;5044191;28;20123;-63
2022/09/16 02:59:15;;;;;;;12.80;5.78;;;;;;;18.37;81.16;96379.00;5039936;28;20088;-62
2022/09/16 03:01:44;;;;;;;11.13;5.65;;;;;;;16.87;87.91;96299.81;5044224;28;20103;-62
2022/09/16 03:04:14;;;;;;;12.90;5.95;;;;;;;17.21;90.75;96379.50;5044040;28;20160;-63
2022/09/16 03:06:41;;;;;;;17.25;6.22;;;;;;;16.36;91.27;96271.19;5044068;28;20139;-63
2022/09/16 03:09:11;;;;;;;11.65;5.43;;;;;;;17.03;90.25;96323.09;5044138;28;20053;-62
2022/09/16 03:11:44;;;;;;;13.63;4.85;;;;;;;17.44;89.68;96381.44;5043744;28;20127;-63
2022/09/16 03:14:36;;;;;;;17.30;6.32;;;;;;;17.56;88.62;96386.44;5042695;28;20096;-63
2022/09/16 03:17:21;;;;;;;22.38;5.60;;;;;;;17.59;88.71;96382.75;5042534;28;20538;-63
2022/09/16 03:19:54;;;;;;;10.43;5.35;;;;;;;17.67;88.35;96373.00;5042625;28;20148;-62
2022/09/16 03:22:39;;;;;;;14.73;5.35;;;;;;;17.84;87.07;96363.41;5042218;28;20088;-61
2022/09/16 03:25:17;;;;;;;21.88;6.35;;;;;;;17.82;86.06;96366.66;5043609;28;20186;-62
2022/09/16 03:28:04;;;;;;;13.57;5.75;;;;;;;17.87;85.77;96362.53;5042445;28;20075;-63
2022/09/16 03:30:37;;;;;;;11.98;5.32;;;;;;;17.60;84.60;96303.13;5041884;28;20061;-62
2022/09/16 03:33:33;;;;;;;7.25;4.72;;;;;;;17.62;83.51;96279.06;5044228;28;20152;-64
2022/09/16 03:36:04;;;;;;;14.32;5.70;;;;;;;17.47;87.41;96366.59;5027662;28;20528;-62
2022/09/16 03:38:34;;;;;;;13.90;5.30;;;;;;;17.19;89.72;96339.16;5043584;28;20537;-62
2022/09/16 03:41:03;;;;;;;18.25;6.55;;;;;;;17.05;88.78;96301.06;5043377;28;20088;-63
2022/09/16 03:43:30;;;;;;;13.55;5.18;;;;;;;17.23;88.74;96328.69;5043966;28;20315;-62
2022/09/16 03:45:56;;;;;;;14.02;5.45;;;;;;;17.12;87.59;96260.94;5043662;28;20168;-63
2022/09/16 03:48:23;;;;;;;10.73;5.93;;;;;;;17.78;87.01;96353.94;5043918;28;20049;-62
2022/09/16 03:50:50;;;;;;;18.55;5.90;;;;;;;17.45;86.50;96324.25;5046284;28;20083;-64
2022/09/16 03:53:16;;;;;;;18.38;8.70;;;;;;;17.84;86.77;96360.59;5046984;28;20346;-62
2022/09/16 03:55:43;;;;;;;19.15;6.43;;;;;;;17.96;85.95;96354.31;5046988;28;20113;-62
2022/09/16 03:58:09;;;;;;;9.05;5.57;;;;;;;18.06;85.08;96353.28;5047247;28;20080;-63
2022/09/16 04:00:36;;;;;;;10.40;5.20;;;;;;;18.15;84.93;96353.47;5046672;28;20053;-62
2022/09/16 04:03:03;;;;;;;19.30;6.25;;;;;;;17.79;84.28;96338.69;5047242;28;20114;-62
2022/09/16 04:05:30;;;;;;;12.27;5.35;;;;;;;17.46;83.43;96234.22;5045474;28;20455;-62
2022/09/16 04:07:56;;;;;;;12.27;5.55;;;;;;;18.15;83.40;96350.66;5046767;28;20136;-62
2022/09/16 04:10:23;;;;;;;13.00;7.03;;;;;;;18.25;83.48;96349.63;5045514;28;20136;-62
2022/09/16 04:12:50;;;;;;;14.25;6.68;;;;;;;18.17;83.38;96320.19;5047199;28;20045;-64
2022/09/16 04:15:16;;;;;;;17.02;7.05;;;;;;;18.36;83.71;96347.34;5046597;28;20048;-65
2022/09/16 04:17:43;;;;;;;13.00;5.43;;;;;;;17.97;85.21;96367.88;5045356;28;20114;-63
2022/09/16 04:20:10;;;;;;;14.00;6.43;;;;;;;17.86;86.28;96358.16;5046090;28;20056;-64
2022/09/16 04:22:36;;;;;;;10.50;5.45;;;;;;;17.42;86.68;96308.28;5046678;28;20072;-63
2022/09/16 04:25:04;;;;;;;20.70;6.57;;;;;;;17.27;88.50;96330.19;5044902;28;20572;-65
2022/09/16 04:27:30;;;;;;;14.70;5.32;;;;;;;17.64;88.30;96374.63;5045255;28;20110;-64
2022/09/16 04:29:57;;;;;;;13.98;5.63;;;;;;;17.65;87.57;96358.63;5046536;28;20118;-63
2022/09/16 04:32:24;;;;;;;14.93;6.72;;;;;;;17.38;86.92;96291.56;5046396;28;20049;-63
2022/09/16 04:34:50;;;;;;;14.45;6.22;;;;;;;17.64;86.56;96329.03;5046541;28;20176;-63
2022/09/16 04:37:18;;;;;;;14.60;7.63;;;;;;;17.42;86.30;96269.09;5046599;28;20132;-64
2022/09/16 04:39:46;;;;;;;13.48;5.80;;;;;;;17.85;85.00;96322.94;5044483;28;20581;-63
2022/09/16 04:42:12;;;;;;;14.32;5.95;;;;;;;17.60;84.49;96258.31;5045765;28;20600;-63
2022/09/16 04:44:39;;;;;;;18.83;6.13;;;;;;;18.46;83.80;96359.56;5044442;28;20072;-63
2022/09/16 04:47:06;;;;;;;20.27;6.07;;;;;;;17.71;82.24;96228.03;5046313;28;20110;-64
2022/09/16 04:49:32;;;;;;;23.60;6.57;;;;;;;18.93;80.88;96374.78;5044672;28;20088;-64
2022/09/16 04:51:59;;;;;;;21.13;6.85;;;;;;;18.88;81.04;96366.91;5044742;28;20056;-63
2022/09/16 04:54:26;;;;;;;15.38;6.60;;;;;;;16.96;79.85;96028.69;5045788;28;20087;-63
2022/09/16 04:56:53;;;;;;;40.55;8.55;;;;;;;18.88;80.66;96331.22;5045516;28;20056;-63
2022/09/16 04:59:20;;;;;;;22.35;6.25;;;;;;;19.03;80.39;96343.63;5044244;28;20067;-63
2022/09/16 05:01:47;;;;;;;23.13;6.13;;;;;;;19.01;81.13;96351.72;5045236;28;20156;-64
2022/09/16 05:04:13;;;;;;;18.83;6.40;;;;;;;18.71;82.71;96314.84;5045752;28;20052;-64
2022/09/16 05:06:40;;;;;;;16.83;5.95;;;;;;;19.40;81.57;96368.28;5045567;28;20508;-64
2022/09/16 05:09:09;;;;;;;18.23;6.80;;;;;;;19.65;79.55;96378.03;5044386;28;20495;-63
2022/09/16 05:11:37;;;;;;;20.92;6.97;;;;;;;19.74;79.11;96358.50;5044304;28;20426;-64
2022/09/16 05:14:07;;;;;;;20.35;9.38;;;;;;;18.61;78.79;96170.81;5045573;28;20600;-64
2022/09/16 05:16:34;;;;;;;24.63;7.35;;;;;;;19.66;80.38;96363.53;5043814;28;20512;-65
2022/09/16 05:19:04;;;;;;;26.08;7.00;;;;;;;19.37;81.72;96368.38;5045029;28;20052;-63
2022/09/16 05:21:34;;;;;;;13.95;6.03;;;;;;;19.39;81.68;96372.31;5044058;28;20052;-64
2022/09/16 05:24:02;;;;;;;15.63;5.88;;;;;;;19.39;81.49;96369.50;5043830;28;20092;-64
2022/09/16 05:26:31;;;;;;;18.50;6.20;;;;;;;19.22;81.85;96356.72;5045387;28;20053;-63
2022/09/16 05:29:10;;;;;;;21.02;6.63;;;;;;;19.36;82.03;96373.22;5043692;28;20160;-62
2022/09/16 05:31:39;;;;;;;19.73;7.88;;;;;;;19.37;81.59;96357.94;5045029;28;20136;-62
2022/09/16 05:34:13;;;;;;;25.73;6.20;;;;;;;19.44;82.44;96379.44;5043415;28;20487;-63
2022/09/16 05:36:42;;;;;;;28.15;6.22;;;;;;;19.80;81.01;96373.56;5043499;28;20135;-63
2022/09/16 05:39:14;;;;;;;20.77;5.50;;;;;;;19.60;79.77;96269.00;5044926;28;20139;-63
2022/09/16 05:41:53;;;;;;;17.98;5.65;;;;;;;20.41;76.12;96334.69;5044917;28;20052;-63
2022/09/16 05:44:20;;;;;;;18.52;6.13;;;;;;;20.85;74.16;96359.72;5044845;28;20131;-63
2022/09/16 05:46:47;;;;;;;25.45;6.88;;;;;;;20.80;73.34;96306.03;5044810;28;20080;-63
2022/09/16 05:49:19;;;;;;;13.63;5.97;;;;;;;21.04;73.50;96346.63;5044686;28;20515;-64
2022/09/16 05:51:47;;;;;;;20.85;6.38;;;;;;;21.11;73.45;96339.97;5044854;28;20049;-63
2022/09/16 05:54:14;;;;;;;9.95;5.85;;;;;;;20.64;73.67;96292.13;5043491;28;20057;-64
2022/09/16 05:56:41;;;;;;;11.75;6.13;;;;;;;21.02;73.60;96360.41;5044690;28;20138;-63
2022/09/16 05:59:10;;;;;;;19.90;7.22;;;;;;;20.15;72.76;96203.78;5036400;28;20045;-61
2022/09/16 06:01:38;;;;;;;15.55;6.13;;;;;;;20.99;73.36;96314.22;5042287;28;20151;-64
2022/09/16 06:04:07;;;;;;;19.58;6.13;;;;;;;21.27;71.33;96312.41;5044588;28;20511;-64
2022/09/16 06:06:53;;;;;;;19.35;7.50;;;;;;;21.74;69.80;96341.25;5044098;28;20128;-64
2022/09/16 06:09:22;;;;;;;13.27;5.93;;;;;;;20.92;68.19;96145.50;5044240;28;20131;-65
2022/09/16 06:11:52;;;;;;;21.70;6.20;;;;;;;22.37;67.23;96324.66;5042623;28;20053;-61
2022/09/16 06:14:27;;;;;;;19.77;5.60;;;;;;;22.41;64.99;96299.13;5042839;28;20084;-63
2022/09/16 06:16:53;;;;;;;18.77;6.10;;;;;;;21.08;63.97;96062.88;5044408;28;20589;-62
2022/09/16 06:19:20;;;;;;;24.10;6.80;;;;;;;23.27;61.78;96328.94;5041321;28;20597;-61
2022/09/16 06:21:47;;;;;;;21.02;6.07;;;;;;;23.41;60.00;96285.94;5044246;28;20077;-62
2022/09/16 06:24:16;;;;;;;23.15;5.90;;;;;;;23.93;58.28;96316.63;5044611;28;20660;-61
2022/09/16 06:26:44;;;;;;;22.67;6.72;;;;;;;24.28;57.52;96314.94;5044555;28;20053;-61
2022/09/16 06:29:11;;;;;;;21.42;6.05;;;;;;;24.00;56.56;96214.44;5035360;28;20122;-60
2022/09/16 06:31:38;;;;;;;19.83;7.03;;;;;;;24.99;54.51;96318.69;5025715;28;20492;-61
2022/09/16 06:34:06;;;;;;;27.45;6.45;;;;;;;25.03;53.08;96299.44;5044656;28;20500;-62
2022/09/16 06:36:35;;;;;;;21.08;7.53;;;;;;;25.53;53.11;96325.22;5042793;28;20044;-62
2022/09/16 06:39:05;;;;;;;21.92;6.53;;;;;;;25.78;50.64;96321.84;5032914;28;20064;-60
2022/09/16 06:41:33;;;;;;;23.30;7.20;;;;;;;26.02;50.96;96331.09;5023842;28;20120;-61
2022/09/16 06:44:00;;;;;;;21.27;7.35;;;;;;;25.58;50.09;96219.56;5036859;28;20072;-66
2022/09/16 06:46:27;;;;;;;24.33;7.53;;;;;;;26.31;49.56;96285.63;5045408;28;20081;-60
2022/09/16 06:48:56;;;;;;;71.55;10.40;;;;;;;26.17;52.30;96252.34;5062352;28;20600;-61
2022/09/16 06:51:30;;;;;;;42.90;8.95;;;;;;;26.06;52.01;96286.25;5042948;28;20942;-61
2022/09/16 06:54:02;;;;;;;36.65;9.40;;;;;;;26.50;52.24;96315.34;5045144;28;20131;-63
2022/09/16 06:56:29;;;;;;;42.20;8.60;;;;;;;26.30;50.90;96244.31;5039109;28;20053;-61
2022/09/16 06:58:56;;;;;;;41.30;8.40;;;;;;;26.75;50.34;96297.69;5023934;28;20046;-62
2022/09/16 07:01:25;;;;;;;33.40;7.53;;;;;;;27.16;49.11;96327.72;5031130;28;20606;-61
2022/09/16 07:03:53;;;;;;;23.58;6.68;;;;;;;27.15;47.48;96326.16;5044006;28;20053;-63
2022/09/16 07:06:21;;;;;;;27.95;9.02;;;;;;;25.41;47.40;96042.69;5042523;28;20084;-68
2022/09/16 07:09:04;;;;;;;24.00;7.97;;;;;;;27.09;46.54;96203.03;5044035;28;20056;-63
2022/09/16 07:11:31;;;;;;;27.80;7.75;;;;;;;27.93;46.02;96288.81;5034862;28;20115;-63
2022/09/16 07:13:59;;;;;;;16.70;7.68;;;;;;;27.75;44.48;96266.34;5023994;28;20128;-64
2022/09/16 07:16:26;;;;;;;26.27;8.38;;;;;;;28.19;43.56;96294.47;5025062;28;20481;-61
2022/09/16 07:18:54;;;;;;;21.95;7.95;;;;;;;28.35;43.50;96308.09;5023033;28;20540;-61
2022/09/16 07:21:28;;;;;;;22.38;8.27;;;;;;;28.43;42.39;96309.19;5023796;28;20060;-63
2022/09/16 07:24:01;;;;;;;24.48;8.68;;;;;;;27.70;42.87;96257.75;5024966;28;20053;-70
2022/09/16 07:26:33;;;;;;;22.95;7.43;;;;;;;28.17;43.18;96301.97;5043338;28;20053;-68
2022/09/16 07:29:02;;;;;;;23.48;7.05;;;;;;;27.69;42.54;96225.69;5044951;28;20110;-67
2022/09/16 07:31:32;;;;;;;25.73;7.70;;;;;;;28.52;41.80;96313.94;5043015;28;20126;-60
2022/09/16 07:34:03;;;;;;;22.73;7.50;;;;;;;28.40;42.33;96280.91;5067157;28;20050;-63
2022/09/16 07:36:37;;;;;;;33.33;8.18;;;;;;;28.98;42.20;96303.09;5057502;28;20060;-64
2022/09/16 07:39:04;;;;;;;;;;;;;;;28.66;42.09;96293.06;5046904;28;20083;-64
2022/09/16 07:41:34;;;;;;;17.48;7.82;;;;;;;28.83;43.11;96291.09;5045769;28;19931;-66
2022/09/16 07:44:01;;;;;;;26.42;8.13;;;;;;;28.49;42.44;96198.09;5026320;28;21426;-64
2022/09/16 07:46:31;;;;;;;45.72;9.43;;;;;;;29.42;41.48;96303.34;5026499;28;20498;-60
2022/09/16 07:49:00;;;;;;;40.70;9.25;;;;;;;29.54;40.49;96265.00;5027323;28;20152;-64
2022/09/16 07:51:28;;;;;;;37.28;8.68;;;;;;;29.55;41.07;96232.28;5024666;28;20084;-63
2022/09/16 07:53:58;;;;;;;31.40;8.55;;;;;;;30.10;40.02;96289.50;5057081;28;20048;-67
2022/09/16 07:56:27;;;;;;;21.20;7.80;;;;;;;29.93;39.70;96257.28;5042060;28;20085;-66
2022/09/16 07:58:55;;;;;;;25.85;7.32;;;;;;;30.63;37.55;96286.44;5030122;28;20904;-60
2022/09/16 08:01:22;;;;;;;17.80;7.25;;;;;;;30.73;35.42;96267.69;5026265;28;20084;-60
2022/09/16 08:03:49;;;;;;;27.70;7.40;;;;;;;31.02;34.03;96292.09;5042172;28;20327;-63
2022/09/16 08:06:19;;;;;;;29.20;7.65;;;;;;;30.72;34.20;96217.50;5026666;28;20175;-59
2022/09/16 08:08:47;;;;;;;20.65;8.43;;;;;;;31.29;34.86;96290.44;5026263;28;20053;-67
2022/09/16 08:11:14;;;;;;;25.65;8.38;;;;;;;31.42;34.08;96270.66;5025125;28;20058;-62
2022/09/16 08:13:42;;;;;;;21.85;7.20;;;;;;;30.95;34.34;96223.97;5026638;28;20108;-64
2022/09/16 08:16:12;;;;;;;26.05;8.30;;;;;;;31.35;33.78;96276.91;5025101;28;20053;-63
2022/09/16 08:18:39;;;;;;;22.15;7.93;;;;;;;30.98;34.10;96203.66;5043846;28;20114;-64
2022/09/16 08:21:08;;;;;;;19.10;7.07;;;;;;;31.59;34.00;96274.19;5042724;28;20144;-64
2022/09/16 08:23:36;;;;;;;19.10;7.53;;;;;;;30.64;34.25;96122.13;5045721;28;20072;-59
2022/09/16 08:26:04;;;;;;;24.75;7.78;;;;;;;31.80;33.80;96266.78;5032488;28;20321;-62
2022/09/16 08:28:31;;;;;;;21.80;8.40;;;;;;;31.22;32.90;96185.09;5026711;28;20057;-66
2022/09/16 08:31:17;;;;;;;25.13;7.70;;;;;;;31.55;32.88;96268.75;5035719;28;20041;-62
2022/09/16 08:33:44;;;;;;;18.83;6.70;;;;;;;31.60;32.88;96270.03;5045952;28;20080;-61
2022/09/16 08:36:14;;;;;;;20.70;7.15;;;;;;;31.76;33.20;96266.28;5044421;28;20049;-62
2022/09/16 08:38:43;;;;;;;28.05;7.35;;;;;;;31.70;33.05;96277.00;5044105;28;20151;-62
2022/09/16 08:41:31;;;;;;;26.08;8.20;;;;;;;29.95;32.59;96000.50;5034223;28;20083;-65
2022/09/16 08:44:02;;;;;;;26.77;7.97;;;;;;;31.34;32.74;96253.25;5045965;28;20140;-66
2022/09/16 08:46:39;;;;;;;26.00;7.68;;;;;;;29.62;32.74;95986.25;5044578;28;20053;-64
2022/09/16 08:49:28;;;;;;;16.95;7.00;;;;;;;31.20;33.00;96219.97;5038178;28;20056;-67
2022/09/16 08:51:56;;;;;;;21.90;7.32;;;;;;;31.42;33.18;96267.78;5029250;28;20045;-62
2022/09/16 08:54:46;;;;;;;20.08;7.78;;;;;;;31.43;33.33;96260.75;5063489;28;20527;-63
2022/09/16 08:57:26;;;;;;;26.38;7.78;;;;;;;31.52;33.16;96269.03;5065630;28;20088;-64
2022/09/16 08:59:57;;;;;;;24.65;8.00;;;;;;;31.58;33.09;96272.66;5054174;28;20143;-61
2022/09/16 09:02:38;;;;;;;26.20;7.35;;;;;;;31.65;33.05;96261.41;5027667;28;20085;-64
2022/09/16 09:05:21;;;;;;;19.35;7.60;;;;;;;31.59;32.70;96254.94;5029433;28;20534;-62
2022/09/16 09:07:53;;;;;;;24.42;8.02;;;;;;;31.54;32.68;96252.88;5045709;28;20049;-62
2022/09/16 09:10:46;;;;;;;17.30;7.55;;;;;;;31.70;32.46;96251.22;5044272;28;20190;-63
2022/09/16 09:13:43;;;;;;;17.05;7.38;;;;;;;31.65;33.12;96241.34;5046026;28;20431;-62
2022/09/16 09:16:34;;;;;;;25.85;6.90;;;;;;;31.88;32.53;96251.41;5045620;28;20117;-62
2022/09/16 09:19:16;;;;;;;22.23;7.72;;;;;;;31.98;32.56;96243.28;5044011;28;20056;-61
2022/09/16 09:22:05;;;;;;;22.70;8.00;;;;;;;31.88;32.39;96221.97;5045012;28;20148;-62
2022/09/16 09:24:57;;;;;;;25.17;8.23;;;;;;;32.16;32.23;96236.88;5045121;28;20087;-61
2022/09/16 09:27:55;;;;;;;18.60;7.78;;;;;;;32.04;32.14;96224.69;5045243;28;20084;-61
2022/09/16 09:30:31;;;;;;;20.30;8.55;;;;;;;31.50;32.18;96157.09;5044623;28;20512;-63
2022/09/16 09:33:16;;;;;;;24.65;8.20;;;;;;;31.97;32.34;96241.69;5045476;28;20053;-62
2022/09/16 09:36:29;;;;;;;25.63;8.07;;;;;;;31.94;32.45;96237.81;5045026;28;20057;-64
2022/09/16 09:39:25;;;;;;;23.45;7.35;;;;;;;32.07;32.88;96234.34;5043807;28;20142;-62
2022/09/16 09:41:56;;;;;;;24.92;8.20;;;;;;;32.09;32.11;96191.59;5027809;28;20048;-62
2022/09/16 09:45:19;;;;;;;27.02;7.72;;;;;;;32.63;31.78;96226.81;5044914;28;20562;-62
2022/09/16 09:47:51;;;;;;;20.75;7.72;;;;;;;32.33;32.10;96171.53;5022344;28;20065;-64
2022/09/16 09:50:28;;;;;;;20.65;7.68;;;;;;;32.60;32.30;96213.53;5024636;28;20081;-64
2022/09/16 09:53:10;;;;;;;20.27;8.05;;;;;;;32.47;32.42;96213.41;5037198;28;20084;-62
2022/09/16 09:55:39;;;;;;;23.35;8.50;;;;;;;32.63;32.22;96212.47;5064113;28;20507;-63
2022/09/16 09:58:33;;;;;;;22.10;8.13;;;;;;;32.88;32.06;96211.19;5064708;28;20079;-62
2022/09/16 10:01:00;;;;;;;20.45;7.65;;;;;;;32.92;32.20;96217.41;5063956;28;20147;-63
2022/09/16 10:03:29;;;;;;;33.60;9.20;;;;;;;32.14;31.99;96119.09;5064813;28;20076;-64
2022/09/16 10:05:56;;;;;;;30.88;9.13;;;;;;;32.88;31.84;96211.19;5064113;28;20075;-64
2022/09/16 10:08:47;;;;;;;20.10;8.18;;;;;;;32.48;31.50;96149.00;5064826;28;20137;-63
2022/09/16 10:11:17;;;;;;;25.00;8.57;;;;;;;32.90;31.41;96184.81;5064264;28;20107;-61
2022/09/16 10:13:52;;;;;;;21.10;7.68;;;;;;;33.20;31.41;96205.56;5064068;28;20045;-62
2022/09/16 10:16:23;;;;;;;21.35;8.70;;;;;;;33.20;31.88;96214.19;5062941;28;20052;-62
2022/09/16 10:19:01;;;;;;;24.80;9.05;;;;;;;33.39;31.73;96212.94;5064379;28;20048;-64
2022/09/16 10:21:46;;;;;;;25.15;7.68;;;;;;;33.26;31.69;96212.81;5064156;28;20068;-62
2022/09/16 10:24:33;;;;;;;25.52;8.00;;;;;;;33.20;31.88;96226.47;5064155;28;20107;-62
2022/09/16 10:27:36;;;;;;;24.15;8.30;;;;;;;33.21;31.99;96205.03;5063999;28;20056;-62
2022/09/16 10:30:17;;;;;;;21.70;7.47;;;;;;;33.41;31.75;96210.28;5063866;28;20129;-64
2022/09/16 10:33:01;;;;;;;21.33;8.35;;;;;;;33.47;31.48;96204.47;5064221;28;20491;-64
2022/09/16 10:35:34;;;;;;;25.88;8.38;;;;;;;33.19;31.46;96167.50;5062424;28;20052;-61
2022/09/16 10:38:16;;;;;;;26.08;8.43;;;;;;;33.35;31.77;96180.06;5056693;28;20056;-61
2022/09/16 10:40:54;;;;;;;30.83;8.20;;;;;;;33.52;31.72;96206.50;5043361;28;20080;-63
2022/09/16 10:43:22;;;;;;;25.38;8.70;;;;;;;33.24;32.23;96175.25;5034003;28;20132;-62
2022/09/16 10:45:51;;;;;;;17.40;7.93;;;;;;;33.57;32.31;96215.03;5029188;28;20053;-63
2022/09/16 10:48:25;;;;;;;27.92;8.73;;;;;;;33.45;32.07;96192.75;5043767;28;20057;-64
2022/09/16 10:50:58;;;;;;;25.13;8.00;;;;;;;33.34;32.17;96193.63;5034756;28;20076;-61
2022/09/16 10:53:50;;;;;;;26.20;8.30;;;;;;;33.35;32.06;96200.97;5029185;28;20489;-63
2022/09/16 10:56:19;;;;;;;26.50;7.67;;;;;;;32.99;31.83;96113.47;5029971;28;20057;-66
2022/09/16 10:58:46;;;;;;;22.60;8.30;;;;;;;33.57;32.12;96208.50;5044867;28;20087;-61
2022/09/16 11:01:24;;;;;;;20.90;7.68;;;;;;;33.00;32.37;96089.19;5043974;28;20173;-62
2022/09/16 11:04:39;;;;;;;20.55;7.50;;;;;;;33.47;32.35;96181.47;4680873;28;10001310;-66
2022/09/16 11:07:09;;;;;;;;;;;;;;;33.10;31.92;96136.28;5024913;28;20061;-60
2022/09/16 11:09:51;;;;;;;27.60;8.50;;;;;;;33.42;32.47;96203.22;5040602;28;20431;-68
2022/09/16 11:12:54;;;;;;;22.98;8.85;;;;;;;33.46;32.44;96203.72;5045371;28;20057;-61
2022/09/16 11:15:32;;;;;;;27.27;7.50;;;;;;;33.38;32.59;96202.75;5044999;28;20072;-62
2022/09/16 11:18:08;;;;;;;24.52;8.82;;;;;;;33.21;32.94;96176.31;5047867;28;20060;-63
2022/09/16 11:20:52;;;;;;;20.48;7.85;;;;;;;33.49;32.90;96191.13;5035039;28;20049;-63
2022/09/16 11:23:38;;;;;;;26.05;8.18;;;;;;;33.60;32.29;96185.22;5027760;28;20049;-65
2022/09/16 11:26:16;;;;;;;21.95;7.75;;;;;;;33.36;32.49;96176.66;5050606;28;20135;-65
2022/09/16 11:28:51;;;;;;;22.65;7.90;;;;;;;33.46;32.13;96185.69;5043132;28;20131;-64
2022/09/16 11:31:23;;;;;;;20.13;7.57;;;;;;;33.43;32.17;96141.56;5046562;28;20132;-61
2022/09/16 11:34:20;;;;;;;15.13;7.90;;;;;;;33.45;32.07;96124.59;5043837;28;20041;-66
2022/09/16 11:37:00;;;;;;;23.00;8.73;;;;;;;33.86;31.78;96143.56;5031858;28;20499;-61
2022/09/16 11:39:36;;;;;;;14.82;7.25;;;;;;;33.67;32.48;96170.22;5064061;28;20080;-60
2022/09/16 11:42:32;;;;;;;19.65;8.88;;;;;;;33.70;32.39;96168.34;5064378;28;20263;-66
2022/09/16 11:45:15;;;;;;;20.17;8.52;;;;;;;33.88;32.22;96158.16;5045318;28;20136;-61
2022/09/16 11:48:00;;;;;;;29.50;9.02;;;;;;;33.93;31.87;96148.69;5044090;28;20118;-67
2022/09/16 11:50:40;;;;;;;18.17;8.20;;;;;;;33.45;31.71;96107.34;5042854;28;20065;-65
2022/09/16 11:53:18;;;;;;;24.90;8.00;;;;;;;33.99;32.38;96140.75;5036884;28;20056;-65
2022/09/16 11:56:01;;;;;;;17.23;7.43;;;;;;;33.88;31.65;96135.16;5046697;28;20682;-63
2022/09/16 11:58:49;;;;;;;23.63;8.00;;;;;;;33.86;31.79;96137.81;5050517;28;20107;-66